Terminal Aerodrome Forecast
Issued by NWS

Home | Current Version | Previous Version | Text Only | Print | Product List | Glossary On
Versions: 1 2 3 4 5 6 7 8 9 10 11 12 13 14 15
115
FTUS45 KRIW 150539
TAFJAC
TAF
KJAC 150539Z 1506/1606 02006KT P6SM SCT200
     FM150800 36006KT P6SM VCFG FEW003 SCT010
     FM151700 18006KT P6SM FEW010
     FM160200 21007KT P6SM BKN060 WS018/24025KT
      AMD LTD TO CLD VIS AND WIND=

USA.gov is the U.S. government's official web portal to all federal, state and local government web resources and services.